Springvale, Maine
Current Conditions -  °F | °C
As of 3:55 AM on Wednesday 22 Oct 2014 (Local Time) from KSFM Reporting Station
Overcast Overcast  
Wind Chill: 43°   Ceiling: 600
Heat Index: 48°   Visibility: 5mi
Dew Point: 43°   Wind: 13mph
Humidity: 82%   Direction: 20°NNE
Pressure: 30.05"   Gusts: 20mph
Location:  43.47°N, 70.8°W
Report Text: KSFM 220755Z AUTO 02011G17KT 5SM OVC006 09/06 A3005 RMK AO1 P0003
Loading
Personal Weather Stations






























Interactive Weather Map
Tropical Storm Tracking
New forecast layout! Learn more

10-Day Weather Forecast

Advertisements
Track Severe Weather on mobile